Lawndale, Illinois
Current Conditions -  °F | °C
As of 1:35 AM on Wednesday 22 Oct 2014 (Local Time) from KAAA Reporting Station
Clear Clear  
Wind Chill: 38°   Ceiling: Unl
Heat Index: 38°   Visibility: 10mi
Dew Point: 37°   Wind: 3mph
Humidity: 94%   Direction: 20°NNE
Pressure: 30.25"   Gusts: NA
Location:  40.22°N, 89.28°W
Report Text: KAAA 220635Z AUTO 02003KT 10SM CLR 04/03 A3025 RMK AO2 T00350026
Loading
Personal Weather Stations






























Interactive Weather Map
Tropical Storm Tracking
New forecast layout! Learn more

10-Day Weather Forecast

Advertisements
Track Severe Weather on mobile